createdAt,value
2023-05-17T00:03:21.812Z,99779.16
2023-05-17T00:07:24.612Z,99783.22
2023-05-17T00:11:27.338Z,99780.78
2023-05-17T00:15:31.482Z,99789.06
2023-05-17T00:19:34.177Z,99778.56
2023-05-17T00:23:36.876Z,99788.50
2023-05-17T00:33:02.389Z,99800.81
2023-05-17T00:37:04.988Z,99805.88
2023-05-17T00:41:07.623Z,99800.81
2023-05-17T00:45:11.110Z,99802.81
2023-05-17T00:49:14.969Z,99809.69
2023-05-17T00:53:17.610Z,99805.66
2023-05-17T00:57:20.469Z,99808.88
2023-05-17T01:01:23.092Z,99809.66
2023-05-17T01:05:28.727Z,99803.81
2023-05-17T01:09:31.990Z,99805.03
2023-05-17T01:13:41.069Z,99809.50
2023-05-17T01:17:52.153Z,99808.63
2023-05-17T01:22:06.008Z,99801.34
2023-05-17T01:26:12.129Z,99807.63
2023-05-17T01:30:18.124Z,99807.38
2023-05-17T01:34:26.449Z,99804.78
2023-05-17T01:38:29.234Z,99814.13
2023-05-17T01:42:33.350Z,99817.44
2023-05-17T01:46:40.496Z,99811.34
2023-05-17T01:50:44.037Z,99799.78
2023-05-17T01:54:49.417Z,99810.13
2023-05-17T01:58:53.624Z,99810.88
2023-05-17T02:02:57.689Z,99811.09
2023-05-17T02:07:00.475Z,99812.88
2023-05-17T02:11:03.129Z,99816.00
2023-05-17T02:15:07.804Z,99815.69
2023-05-17T02:19:13.173Z,99816.16
2023-05-17T02:23:16.178Z,99818.59
2023-05-17T02:27:18.810Z,99820.56
2023-05-17T02:31:21.430Z,99806.84
2023-05-17T02:35:25.569Z,99827.09
2023-05-17T02:39:28.248Z,99823.19
2023-05-17T02:43:31.092Z,99829.63
2023-05-17T02:47:33.800Z,99825.44
2023-05-17T02:51:37.911Z,99817.72
2023-05-17T02:55:40.639Z,99819.75
2023-05-17T02:59:43.404Z,99823.41
2023-05-17T03:03:46.183Z,99817.69
2023-05-17T03:07:50.335Z,99825.78
2023-05-17T03:11:52.871Z,99825.56
2023-05-17T03:15:55.496Z,99816.66
2023-05-17T03:19:58.171Z,99821.72
2023-05-17T03:24:02.249Z,99824.13
2023-05-17T03:28:05.231Z,99829.78
2023-05-17T03:32:08.398Z,99827.94
2023-05-17T03:36:11.136Z,99829.38
2023-05-17T03:40:15.205Z,99839.28
2023-05-17T03:44:17.889Z,99833.63
2023-05-17T03:48:20.577Z,99838.50
2023-05-17T03:52:23.305Z,99848.84
2023-05-17T03:56:27.611Z,99844.78
2023-05-17T04:00:30.356Z,99836.91
2023-05-17T04:04:33.115Z,99837.13
2023-05-17T04:08:36.522Z,99843.22
2023-05-17T04:12:40.546Z,99848.31
2023-05-17T04:16:43.214Z,99848.47
2023-05-17T04:20:45.973Z,99856.75
2023-05-17T04:24:48.677Z,99865.22
2023-05-17T04:28:52.684Z,99872.91
2023-05-17T04:32:55.790Z,99871.09
2023-05-17T04:36:58.537Z,99874.72
2023-05-17T04:41:05.108Z,99884.00
2023-05-17T04:45:10.600Z,99880.22
2023-05-17T04:49:13.299Z,99851.50
2023-05-17T04:53:16.718Z,99887.34
2023-05-17T04:57:19.398Z,99890.56
2023-05-17T05:01:23.416Z,99889.28
2023-05-17T05:05:26.375Z,99903.00
2023-05-17T05:09:29.282Z,99906.41
2023-05-17T05:13:33.088Z,99910.53
2023-05-17T05:17:36.979Z,99908.94
2023-05-17T05:21:39.671Z,99915.72
2023-05-17T05:25:42.351Z,99930.41
2023-05-17T05:29:45.007Z,99934.38
2023-05-17T05:33:49.976Z,99933.47
2023-05-17T05:37:52.663Z,99931.78
2023-05-17T05:41:55.346Z,99940.91
2023-05-17T05:45:57.992Z,99943.81
2023-05-17T05:50:02.071Z,99952.97
2023-05-17T05:54:04.813Z,99954.84
2023-05-17T05:58:07.499Z,99960.00
2023-05-17T06:02:10.473Z,99960.84
2023-05-17T06:06:16.615Z,99959.28
2023-05-17T06:10:19.574Z,99971.31
2023-05-17T06:14:22.408Z,99971.47
2023-05-17T06:18:25.169Z,99988.59
2023-05-17T06:22:29.486Z,99997.94
2023-05-17T06:26:32.497Z,100003.75
2023-05-17T06:30:35.155Z,100012.97
2023-05-17T06:34:39.971Z,100008.31
2023-05-17T06:38:44.003Z,100010.53
2023-05-17T06:42:46.676Z,100016.56
2023-05-17T06:46:49.550Z,100009.09
2023-05-17T06:50:52.181Z,100020.88
2023-05-17T06:54:56.222Z,100031.56
2023-05-17T06:58:59.498Z,100033.50
2023-05-17T07:03:02.294Z,100032.28
2023-05-17T07:07:05.263Z,100035.50
2023-05-17T07:11:09.409Z,100033.50
2023-05-17T07:15:12.719Z,100041.91
2023-05-17T07:19:15.446Z,100045.47
2023-05-17T07:23:18.246Z,100053.72
2023-05-17T07:27:22.278Z,100040.47
2023-05-17T07:31:24.964Z,100045.47
2023-05-17T07:35:27.846Z,100038.25
2023-05-17T07:39:30.754Z,100037.56
2023-05-17T07:43:34.808Z,100010.84
2023-05-17T07:47:37.630Z,100029.72
2023-05-17T07:51:40.469Z,100035.66
2023-05-17T07:55:52.565Z,100039.81
2023-05-17T07:59:56.603Z,100038.69
2023-05-17T08:03:59.293Z,100047.91
2023-05-17T08:08:02.204Z,100042.88
2023-05-17T08:12:05.369Z,100049.25
2023-05-17T08:16:14.053Z,100039.00
2023-05-17T08:20:17.826Z,100037.31
2023-05-17T08:24:20.808Z,100037.31
2023-05-17T08:28:23.469Z,100037.56
2023-05-17T08:32:28.131Z,100045.75
2023-05-17T08:36:31.814Z,100040.78
2023-05-17T08:40:34.567Z,100040.09
2023-05-17T08:44:38.732Z,100038.47
2023-05-17T08:48:44.054Z,100038.78
2023-05-17T08:52:47.358Z,100037.56
2023-05-17T08:56:52.635Z,100043.19
2023-05-17T09:00:56.160Z,100038.22
2023-05-17T09:05:01.043Z,100040.94
2023-05-17T09:09:04.030Z,100036.25
2023-05-17T09:13:06.684Z,100029.44
2023-05-17T09:17:09.387Z,100027.72
2023-05-17T09:21:14.529Z,100029.34
2023-05-17T09:25:20.617Z,100031.53
2023-05-17T09:29:23.277Z,100039.22
2023-05-17T09:33:26.282Z,100033.97
2023-05-17T09:37:30.915Z,100034.63
2023-05-17T09:41:34.728Z,100029.38
2023-05-17T09:45:37.700Z,100022.47
2023-05-17T09:49:40.357Z,100022.38
2023-05-17T09:53:44.537Z,100021.16
2023-05-17T09:57:48.774Z,100018.63
2023-05-17T10:01:51.570Z,100018.53
2023-05-17T10:05:54.648Z,100023.28
2023-05-17T10:09:59.497Z,100029.28
2023-05-17T10:14:11.250Z,100031.47
2023-05-17T10:18:14.462Z,100023.97
2023-05-17T10:22:23.333Z,100022.84
2023-05-17T10:26:28.522Z,100012.56
2023-05-17T10:30:31.242Z,100006.44
2023-05-17T10:34:35.261Z,100004.75
2023-05-17T10:38:42.655Z,100001.38
2023-05-17T10:42:51.911Z,99997.81
2023-05-17T10:46:56.068Z,100003.47
2023-05-17T10:51:01.779Z,99998.19
2023-05-17T10:55:05.139Z,99993.28
2023-05-17T10:59:21.675Z,99991.31
2023-05-17T11:03:29.325Z,99993.47
2023-05-17T11:07:34.856Z,99982.59
2023-05-17T11:11:37.535Z,99980.75
2023-05-17T11:15:41.834Z,99969.59
2023-05-17T11:19:56.613Z,99966.63
2023-05-17T11:24:03.788Z,99949.25
2023-05-17T11:28:11.184Z,99949.41
2023-05-17T11:32:15.330Z,99966.00
2023-05-17T11:36:20.545Z,99962.06
2023-05-17T11:40:28.626Z,99965.22
2023-05-17T11:44:33.167Z,99955.13
2023-05-17T11:48:37.867Z,99941.00
2023-05-17T11:52:41.957Z,99943.88
2023-05-17T11:56:44.719Z,99940.22
2023-05-17T12:00:47.498Z,99946.50
2023-05-17T12:04:51.629Z,99939.16
2023-05-17T12:08:54.413Z,99938.84
2023-05-17T12:12:57.873Z,99957.44
2023-05-17T12:17:01.977Z,99947.47
2023-05-17T12:21:06.889Z,99943.78
2023-05-17T12:25:20.316Z,99936.13
2023-05-17T12:29:24.924Z,99930.47
2023-05-17T12:33:27.830Z,99923.50
2023-05-17T12:37:32.145Z,99935.78
2023-05-17T12:41:34.912Z,99931.75
2023-05-17T12:45:37.738Z,99928.94
2023-05-17T12:49:41.335Z,99917.47
2023-05-17T12:53:46.508Z,99923.72
2023-05-17T12:57:52.665Z,99911.88
2023-05-17T13:01:56.621Z,99918.34
2023-05-17T13:06:04.315Z,99927.91
2023-05-17T13:10:21.247Z,99914.38
2023-05-17T13:14:38.059Z,99915.69
2023-05-17T13:18:51.525Z,99898.59
2023-05-17T13:22:54.855Z,99898.63
2023-05-17T13:26:58.904Z,99906.03
2023-05-17T13:31:01.625Z,99900.72
2023-05-17T13:35:04.757Z,99899.66
2023-05-17T13:39:07.447Z,99903.53
2023-05-17T13:43:11.502Z,99897.56
2023-05-17T13:47:14.260Z,99899.00
2023-05-17T13:51:17.028Z,99895.94
2023-05-17T13:55:19.724Z,99881.53
2023-05-17T13:59:24.149Z,99886.59
2023-05-17T14:03:27.044Z,99888.22
2023-05-17T14:07:30.092Z,99874.31
2023-05-17T14:11:32.868Z,99882.31
2023-05-17T14:15:38.503Z,99878.72
2023-05-17T14:19:41.223Z,99870.03
2023-05-17T14:23:43.899Z,99870.06
2023-05-17T14:27:46.833Z,99841.09
2023-05-17T14:31:50.717Z,99870.84
2023-05-17T14:35:53.401Z,99876.19
2023-05-17T14:40:05.820Z,99867.03
2023-05-17T14:44:08.951Z,99866.72
2023-05-17T14:48:13.205Z,99871.28
2023-05-17T14:52:16.135Z,99854.75
2023-05-17T14:56:19.025Z,99850.53
2023-05-17T15:00:23.420Z,99849.50
2023-05-17T15:04:27.562Z,99848.38
2023-05-17T15:08:30.563Z,99847.84
2023-05-17T15:12:33.309Z,99839.84
2023-05-17T15:16:35.904Z,99840.63
2023-05-17T15:20:40.087Z,99847.28
2023-05-17T15:24:42.765Z,99840.16
2023-05-17T15:28:45.455Z,99830.00
2023-05-17T15:32:48.158Z,99828.09
2023-05-17T15:36:52.200Z,99824.94
2023-05-17T15:41:02.609Z,99833.41
2023-05-17T15:45:05.978Z,99828.44
2023-05-17T15:49:08.766Z,99839.34
2023-05-17T15:53:13.165Z,99829.75
2023-05-17T15:57:16.046Z,99829.22
2023-05-17T16:01:18.842Z,99805.19
2023-05-17T16:05:21.845Z,99839.19
2023-05-17T16:09:26.204Z,99846.19
2023-05-17T16:13:29.147Z,99837.97
2023-05-17T16:17:31.963Z,99844.03
2023-05-17T16:21:35.565Z,99844.59
2023-05-17T16:25:39.976Z,99836.03
2023-05-17T16:29:42.885Z,99832.03
2023-05-17T16:33:45.601Z,99844.47
2023-05-17T16:37:49.947Z,99836.84
2023-05-17T16:41:55.655Z,99830.41
2023-05-17T16:45:58.338Z,99831.72
2023-05-17T16:50:01.601Z,99851.94
2023-05-17T16:54:04.466Z,99842.94
2023-05-17T16:58:08.798Z,99850.56
2023-05-17T17:02:12.852Z,99844.75
2023-05-17T17:06:15.581Z,99846.59
2023-05-17T17:10:19.999Z,99846.41
2023-05-17T17:14:24.326Z,99848.63
2023-05-17T17:18:26.957Z,99841.97
2023-05-17T17:22:29.622Z,99828.28
2023-05-17T17:26:32.344Z,99854.31
2023-05-17T17:30:36.349Z,99854.84
2023-05-17T17:34:38.997Z,99857.81
2023-05-17T17:38:41.750Z,99856.69
2023-05-17T17:42:44.491Z,99862.53
2023-05-17T17:46:48.675Z,99862.34
2023-05-17T17:50:51.371Z,99864.53
2023-05-17T17:54:54.074Z,99872.34
2023-05-17T17:58:57.179Z,99871.00
2023-05-17T18:03:01.338Z,99876.66
2023-05-17T18:07:04.077Z,99883.50
2023-05-17T18:11:06.772Z,99878.34
2023-05-17T18:15:10.795Z,99879.72
2023-05-17T18:19:15.017Z,99887.72
2023-05-17T18:23:17.763Z,99887.28
2023-05-17T18:27:20.504Z,99884.94
2023-05-17T18:31:23.227Z,99889.22
2023-05-17T18:35:27.399Z,99876.72
2023-05-17T18:39:30.282Z,99888.41
2023-05-17T18:43:33.317Z,99885.16
2023-05-17T18:47:36.446Z,99874.06
2023-05-17T18:51:40.511Z,99887.81
2023-05-17T18:55:43.163Z,99887.19
2023-05-17T18:59:45.816Z,99889.06
2023-05-17T19:03:51.394Z,99895.25
2023-05-17T19:07:55.760Z,99896.59
2023-05-17T19:11:58.465Z,99899.63
2023-05-17T19:16:02.962Z,99907.91
2023-05-17T19:20:06.557Z,99912.00
2023-05-17T19:24:10.894Z,99913.09
2023-05-17T19:28:13.574Z,99919.59
2023-05-17T19:32:16.192Z,99922.38
2023-05-17T19:36:18.919Z,99929.34
2023-05-17T19:40:23.164Z,99920.47
2023-05-17T19:44:25.957Z,99931.31
2023-05-17T19:48:28.594Z,99936.00
2023-05-17T19:52:31.269Z,99935.03
2023-05-17T19:56:35.300Z,99933.16
2023-05-17T20:00:38.572Z,99935.06
2023-05-17T20:04:41.636Z,99939.44
2023-05-17T20:08:44.391Z,99938.63
2023-05-17T20:12:48.452Z,99938.84
2023-05-17T20:16:51.284Z,99940.94
2023-05-17T20:20:55.806Z,99942.09
2023-05-17T20:24:58.617Z,99941.00
2023-05-17T20:29:02.730Z,99940.72
2023-05-17T20:33:06.883Z,99938.44
2023-05-17T20:37:11.253Z,99932.19
2023-05-17T20:41:14.970Z,99949.22
2023-05-17T20:45:18.960Z,99953.34
2023-05-17T20:49:21.762Z,99956.06
2023-05-17T20:53:24.642Z,99949.53
2023-05-17T20:57:27.416Z,99950.22
2023-05-17T21:01:31.620Z,99950.13
2023-05-17T21:05:36.202Z,99948.66
2023-05-17T21:09:39.235Z,99956.19
2023-05-17T21:13:41.905Z,99934.34
2023-05-17T21:17:46.101Z,99945.97
2023-05-17T21:21:48.830Z,99940.91
2023-05-17T21:25:51.488Z,99952.50
2023-05-17T21:29:54.411Z,99951.25
2023-05-17T21:33:58.634Z,99946.00
2023-05-17T21:38:01.306Z,99877.44
2023-05-17T21:42:04.289Z,99951.50
2023-05-17T21:46:07.100Z,99954.63
2023-05-17T21:50:12.504Z,99958.03
2023-05-17T21:54:15.175Z,99948.16
2023-05-17T21:58:19.452Z,99955.44
2023-05-17T22:02:22.125Z,99954.13
2023-05-17T22:06:27.566Z,99945.66
2023-05-17T22:10:30.522Z,99945.31
2023-05-17T22:14:35.119Z,99940.63
2023-05-17T22:18:38.233Z,99911.75
2023-05-17T22:22:42.374Z,99949.00
2023-05-17T22:26:45.136Z,99943.44
2023-05-17T22:30:48.661Z,99947.69
2023-05-17T22:34:52.862Z,99957.03
2023-05-17T22:38:57.921Z,99955.47
2023-05-17T22:43:01.389Z,99950.88
2023-05-17T22:47:06.167Z,99955.75
2023-05-17T22:51:08.972Z,99957.13
2023-05-17T22:55:13.130Z,99967.59
2023-05-17T22:59:15.962Z,99964.34
2023-05-17T23:03:18.745Z,99942.16
2023-05-17T23:07:21.870Z,99966.28
2023-05-17T23:11:25.920Z,99962.00
2023-05-17T23:15:29.691Z,99963.22
2023-05-17T23:19:33.939Z,99945.03
2023-05-17T23:23:37.964Z,99959.00
2023-05-17T23:27:44.688Z,99963.03
2023-05-17T23:31:48.731Z,99965.03
2023-05-17T23:35:53.495Z,99950.88
2023-05-17T23:39:56.539Z,99947.69
2023-05-17T23:44:00.721Z,99951.09
2023-05-17T23:48:03.339Z,99944.44
2023-05-17T23:52:11.111Z,99958.81
2023-05-17T23:56:13.773Z,99959.81
